Time;durP1;ratioP1;P1;durP2;ratioP2;P2;SDS_P1;SDS_P2;PMS_P1;PMS_P2;Temp;Humidity;BMP_temperature;BMP_pressure;BME280_temperature;BME280_humidity;BME280_pressure;Samples;Min_cycle;Max_cycle;Signal;HPM_P1;HPM_P2
2023/08/18 00:00:25;;;;;;;4.47;2.72;;;20.90;61.70;;;;;;5019446;28;20504;-80
2023/08/18 00:02:51;;;;;;;5.20;2.28;;;20.90;63.10;;;;;;5017734;28;20542;-78
2023/08/18 00:05:16;;;;;;;5.32;3.10;;;20.90;63.10;;;;;;5018832;28;20531;-78
2023/08/18 00:07:42;;;;;;;4.18;2.17;;;21.00;62.50;;;;;;5019612;28;20056;-76
2023/08/18 00:10:08;;;;;;;4.70;2.72;;;21.00;61.50;;;;;;5020155;28;20022;-80
2023/08/18 00:12:34;;;;;;;7.53;2.53;;;20.90;62.90;;;;;;5017293;28;20080;-78
2023/08/18 00:15:01;;;;;;;4.88;2.20;;;20.90;62.10;;;;;;5019389;28;20505;-77
2023/08/18 00:17:26;;;;;;;5.13;2.30;;;20.90;62.30;;;;;;5019327;28;20065;-76
2023/08/18 00:19:52;;;;;;;3.33;2.25;;;20.80;62.90;;;;;;5018402;28;20025;-76
2023/08/18 00:22:18;;;;;;;4.55;2.20;;;20.80;62.60;;;;;;5018389;28;20443;-75
2023/08/18 00:24:44;;;;;;;3.78;2.20;;;20.80;62.70;;;;;;5018478;28;20018;-76
2023/08/18 00:27:09;;;;;;;8.38;2.38;;;20.80;63.20;;;;;;5018714;28;20029;-76
2023/08/18 00:29:35;;;;;;;3.30;2.42;;;20.70;63.10;;;;;;5020920;28;20085;-76
2023/08/18 00:32:00;;;;;;;3.70;2.55;;;20.60;63.70;;;;;;5019311;28;20033;-76
2023/08/18 00:34:26;;;;;;;3.65;2.42;;;20.60;64.90;;;;;;5025696;28;20108;-77
2023/08/18 00:36:52;;;;;;;4.70;2.55;;;20.60;65.20;;;;;;5027269;28;20036;-78
2023/08/18 00:39:17;;;;;;;5.13;2.80;;;20.60;64.40;;;;;;5023463;28;20033;-76
2023/08/18 00:41:43;;;;;;;4.05;2.60;;;20.60;64.50;;;;;;5016987;28;20052;-78
2023/08/18 00:44:08;;;;;;;5.72;2.22;;;20.60;64.10;;;;;;5016628;28;20025;-77
2023/08/18 00:46:35;;;;;;;4.53;2.53;;;20.60;64.60;;;;;;5016576;28;20108;-76
2023/08/18 00:49:04;;;;;;;6.90;2.78;;;20.60;64.00;;;;;;5016612;28;20030;-76
2023/08/18 00:51:32;;;;;;;3.42;2.00;;;20.60;64.40;;;;;;5016422;28;20457;-76
2023/08/18 00:53:58;;;;;;;4.85;2.28;;;20.70;64.20;;;;;;5016371;28;20090;-76
2023/08/18 00:56:24;;;;;;;4.05;2.50;;;20.60;63.90;;;;;;5017895;28;20071;-76
2023/08/18 00:58:50;;;;;;;5.93;2.50;;;20.60;63.50;;;;;;5017244;28;20462;-76
2023/08/18 01:01:16;;;;;;;4.20;2.60;;;20.60;63.70;;;;;;5016084;28;20049;-76
2023/08/18 01:03:42;;;;;;;5.72;2.38;;;20.60;64.10;;;;;;5015454;28;20068;-79
2023/08/18 01:06:07;;;;;;;3.50;2.50;;;20.60;63.90;;;;;;5016061;28;20025;-76
2023/08/18 01:08:33;;;;;;;4.47;2.22;;;20.70;64.00;;;;;;5016181;28;20034;-76
2023/08/18 01:11:01;;;;;;;3.58;2.35;;;20.70;64.00;;;;;;5015977;28;20104;-76
2023/08/18 01:13:33;;;;;;;6.18;2.30;;;20.80;63.20;;;;;;5015659;28;20041;-75
2023/08/18 01:16:02;;;;;;;2.90;2.08;;;20.80;62.30;;;;;;5016180;28;20121;-79
2023/08/18 01:18:29;;;;;;;5.15;2.60;;;20.80;62.80;;;;;;5015742;28;20022;-75
2023/08/18 01:20:57;;;;;;;7.50;2.38;;;20.80;61.80;;;;;;5015950;28;20057;-75
2023/08/18 01:23:35;;;;;;;4.80;2.10;;;20.60;62.00;;;;;;5016112;28;20425;-76
2023/08/18 01:26:00;;;;;;;4.70;2.45;;;20.40;63.60;;;;;;5015881;28;20026;-76
2023/08/18 01:28:26;;;;;;;7.07;2.30;;;20.20;64.80;;;;;;5033879;28;20103;-75
2023/08/18 01:30:53;;;;;;;6.30;3.10;;;19.90;65.90;;;;;;5016670;28;20018;-75
2023/08/18 01:33:29;;;;;;;5.22;2.42;;;19.80;66.60;;;;;;5022622;28;20033;-77
2023/08/18 01:36:02;;;;;;;5.95;3.00;;;19.60;67.40;;;;;;5017106;28;20111;-76
2023/08/18 01:38:30;;;;;;;7.45;2.65;;;19.50;67.90;;;;;;5016061;28;20033;-76
2023/08/18 01:40:57;;;;;;;4.22;2.50;;;19.40;68.30;;;;;;5014904;28;20044;-76
2023/08/18 01:43:24;;;;;;;5.70;3.30;;;19.30;69.10;;;;;;5015825;28;20091;-81
2023/08/18 01:45:49;;;;;;;3.42;2.70;;;19.20;69.40;;;;;;5015523;28;20028;-77
2023/08/18 01:48:15;;;;;;;3.20;2.75;;;19.20;69.90;;;;;;5015512;28;20029;-76
2023/08/18 01:50:40;;;;;;;8.15;2.85;;;19.10;70.30;;;;;;5014399;28;20068;-76
2023/08/18 01:53:06;;;;;;;5.85;2.58;;;19.10;70.40;;;;;;5015030;28;20037;-77
2023/08/18 01:55:31;;;;;;;5.13;2.67;;;19.10;70.60;;;;;;5015364;28;20029;-77
2023/08/18 01:57:58;;;;;;;5.40;2.60;;;18.90;71.20;;;;;;5015344;28;20642;-76
2023/08/18 02:00:25;;;;;;;5.32;2.85;;;18.80;71.90;;;;;;5014982;28;20113;-77
2023/08/18 02:02:51;;;;;;;7.13;3.20;;;18.70;72.30;;;;;;5015416;28;20317;-83
2023/08/18 02:05:17;;;;;;;6.50;3.10;;;18.70;73.00;;;;;;5016074;28;20084;-82
2023/08/18 02:07:42;;;;;;;4.57;3.28;;;18.60;73.60;;;;;;5017783;28;20021;-88
2023/08/18 02:10:09;;;;;;;5.20;3.03;;;18.60;73.80;;;;;;5016076;28;20067;-80
2023/08/18 02:12:35;;;;;;;6.35;2.92;;;18.70;73.40;;;;;;5015315;28;20045;-79
2023/08/18 02:15:00;;;;;;;14.02;3.33;;;18.90;73.20;;;;;;5017282;28;20033;-77
2023/08/18 02:17:29;;;;;;;6.70;3.30;;;19.10;72.20;;;;;;5019653;28;20033;-85
2023/08/18 02:19:58;;;;;;;4.45;3.08;;;19.30;71.40;;;;;;5019353;28;20022;-78
2023/08/18 02:22:25;;;;;;;9.45;3.03;;;19.50;70.80;;;;;;5020050;28;20032;-80
2023/08/18 02:24:52;;;;;;;7.95;3.55;;;19.40;70.60;;;;;;5020156;28;20029;-78
2023/08/18 02:27:17;;;;;;;5.40;2.95;;;19.30;70.90;;;;;;5019377;28;20116;-88
2023/08/18 02:29:43;;;;;;;6.50;2.78;;;19.30;71.10;;;;;;5020076;28;20109;-83
2023/08/18 02:32:09;;;;;;;7.10;3.50;;;19.10;71.90;;;;;;5019916;28;20032;-83
2023/08/18 02:34:35;;;;;;;5.25;3.20;;;19.00;72.30;;;;;;5018941;28;20057;-84
2023/08/18 02:37:01;;;;;;;4.32;2.78;;;18.90;73.60;;;;;;5019033;28;20021;-80
2023/08/18 02:39:27;;;;;;;6.68;3.10;;;18.80;72.90;;;;;;5019230;28;20128;-76
2023/08/18 02:41:53;;;;;;;4.10;3.20;;;18.70;72.90;;;;;;5018620;28;20065;-78
2023/08/18 02:44:20;;;;;;;6.40;3.05;;;18.70;72.90;;;;;;5019317;28;20079;-84
2023/08/18 02:46:47;;;;;;;5.65;3.30;;;18.60;73.50;;;;;;5019066;28;20492;-76
2023/08/18 02:49:13;;;;;;;6.40;3.28;;;18.60;72.50;;;;;;5020146;28;20021;-79
2023/08/18 02:51:38;;;;;;;7.40;3.53;;;18.70;73.00;;;;;;5019594;28;20074;-77
2023/08/18 02:54:05;;;;;;;6.20;3.42;;;18.70;73.00;;;;;;5038634;28;20124;-86
2023/08/18 02:56:32;;;;;;;5.20;2.95;;;18.80;73.30;;;;;;5021501;28;20103;-87
2023/08/18 02:58:57;;;;;;;4.82;3.65;;;18.70;73.70;;;;;;5036284;28;20047;-75
2023/08/18 03:01:24;;;;;;;5.70;3.42;;;18.80;73.70;;;;;;5018640;28;20017;-77
2023/08/18 03:03:49;;;;;;;7.35;3.08;;;18.70;73.80;;;;;;5018461;28;20033;-89
2023/08/18 03:06:15;;;;;;;8.90;4.15;;;18.60;73.90;;;;;;5036460;28;20033;-82
2023/08/18 03:08:41;;;;;;;7.25;3.95;;;18.60;74.20;;;;;;5017906;28;20025;-75
2023/08/18 03:11:06;;;;;;;7.32;3.75;;;18.60;74.60;;;;;;5018586;28;20029;-74
2023/08/18 03:13:32;;;;;;;9.10;4.10;;;18.50;74.90;;;;;;5017745;28;20054;-75
2023/08/18 03:15:58;;;;;;;6.63;3.60;;;18.60;74.80;;;;;;5017930;28;20029;-76
2023/08/18 03:18:23;;;;;;;10.00;4.10;;;18.70;74.60;;;;;;5018019;28;20478;-76
2023/08/18 03:20:50;;;;;;;7.32;3.78;;;18.70;73.90;;;;;;5018009;28;20056;-77
2023/08/18 03:23:19;;;;;;;8.98;3.78;;;18.70;73.80;;;;;;5019489;28;20496;-76
2023/08/18 03:25:44;;;;;;;5.20;3.45;;;18.70;74.90;;;;;;5018893;28;20021;-75
2023/08/18 03:28:11;;;;;;;8.73;3.42;;;18.70;74.10;;;;;;5017889;28;20033;-76
2023/08/18 03:30:37;;;;;;;5.35;3.47;;;18.70;74.10;;;;;;5017870;28;20478;-75
2023/08/18 03:33:04;;;;;;;6.70;3.55;;;18.80;73.20;;;;;;5035740;28;20401;-81
2023/08/18 03:35:35;;;;;;;5.40;3.28;;;18.90;72.90;;;;;;5017570;28;20044;-77
2023/08/18 03:38:01;;;;;;;5.57;3.33;;;19.00;72.60;;;;;;5017246;28;20056;-80
2023/08/18 03:40:27;;;;;;;6.07;3.45;;;19.00;72.40;;;;;;5017328;28;20079;-80
2023/08/18 03:42:52;;;;;;;5.38;3.55;;;19.20;72.30;;;;;;5017514;28;20029;-76
2023/08/18 03:45:18;;;;;;;5.95;3.30;;;19.20;71.90;;;;;;5016779;28;20167;-77
2023/08/18 03:47:45;;;;;;;7.20;3.85;;;19.30;71.50;;;;;;5017248;28;20021;-78
2023/08/18 03:50:11;;;;;;;5.38;3.08;;;19.20;71.10;;;;;;5034939;28;20381;-76
2023/08/18 03:52:37;;;;;;;6.03;3.20;;;19.40;71.10;;;;;;5017795;28;20025;-90
2023/08/18 03:55:04;;;;;;;6.22;3.38;;;19.40;70.60;;;;;;5017671;28;20081;-76
2023/08/18 03:57:30;;;;;;;10.73;3.42;;;19.40;70.20;;;;;;5018002;28;20029;-89
2023/08/18 03:59:55;;;;;;;7.97;3.60;;;19.30;70.50;;;;;;5017222;28;20060;-81
2023/08/18 04:02:22;;;;;;;4.97;3.47;;;19.20;70.80;;;;;;5017527;28;20021;-84
2023/08/18 04:04:48;;;;;;;9.88;3.97;;;19.10;71.20;;;;;;5035427;28;20029;-90
2023/08/18 04:07:13;;;;;;;6.40;3.20;;;19.00;71.50;;;;;;5017385;28;20038;-76
2023/08/18 04:09:39;;;;;;;8.57;3.65;;;18.80;72.10;;;;;;5017409;28;20021;-79
2023/08/18 04:12:05;;;;;;;8.05;3.35;;;18.80;72.50;;;;;;5017770;28;20057;-77
2023/08/18 04:14:30;;;;;;;6.72;3.35;;;18.60;72.30;;;;;;5017610;28;20037;-88
2023/08/18 04:16:56;;;;;;;6.07;4.00;;;18.50;73.00;;;;;;5020572;28;20021;-85
2023/08/18 04:19:21;;;;;;;13.27;4.53;;;18.40;73.50;;;;;;5020237;28;20079;-85
2023/08/18 04:21:47;;;;;;;8.00;3.90;;;18.40;73.50;;;;;;5036625;28;20017;-81
2023/08/18 04:24:13;;;;;;;6.75;3.55;;;18.40;73.50;;;;;;5017190;28;20413;-78
2023/08/18 04:26:39;;;;;;;9.93;3.40;;;18.40;73.40;;;;;;5034811;28;20100;-87
2023/08/18 04:29:05;;;;;;;6.93;3.47;;;18.50;73.60;;;;;;5017195;28;20026;-87
2023/08/18 04:31:31;;;;;;;6.13;3.40;;;18.40;73.10;;;;;;5017729;28;20363;-82
2023/08/18 04:33:58;;;;;;;5.57;3.38;;;18.50;73.20;;;;;;5017823;28;20037;-85
2023/08/18 04:36:23;;;;;;;4.25;2.95;;;18.50;73.30;;;;;;5002957;28;20022;-88
2023/08/18 04:38:49;;;;;;;11.18;3.33;;;18.40;73.00;;;;;;5022248;28;20124;-87
2023/08/18 04:41:14;;;;;;;10.70;4.20;;;18.50;73.10;;;;;;5037733;28;20010;-83
2023/08/18 04:43:40;;;;;;;8.60;3.65;;;18.40;73.10;;;;;;5028402;28;20134;-85
2023/08/18 04:46:06;;;;;;;7.60;3.13;;;18.40;73.10;;;;;;5017319;28;20040;-79
2023/08/18 04:48:31;;;;;;;6.28;3.33;;;18.40;73.60;;;;;;5016969;28;20035;-78
2023/08/18 04:50:57;;;;;;;7.00;3.42;;;18.30;73.30;;;;;;4999740;28;20460;-85
2023/08/18 04:53:22;;;;;;;8.18;3.88;;;18.40;73.20;;;;;;5015833;28;20048;-78
2023/08/18 04:55:48;;;;;;;9.32;3.50;;;18.30;73.40;;;;;;5016299;28;20079;-83
2023/08/18 04:58:15;;;;;;;6.35;3.28;;;18.20;73.90;;;;;;5035064;28;20041;-86
2023/08/18 05:00:42;;;;;;;7.80;3.40;;;18.10;74.20;;;;;;5017156;28;20505;-85
2023/08/18 05:03:08;;;;;;;5.43;3.70;;;18.00;74.60;;;;;;5017271;28;20053;-83
2023/08/18 05:05:38;;;;;;;9.35;3.40;;;18.00;74.80;;;;;;5016467;28;20488;-84
2023/08/18 05:08:04;;;;;;;9.80;3.65;;;18.00;74.90;;;;;;5015893;28;20033;-82
2023/08/18 05:10:31;;;;;;;6.18;3.22;;;18.00;75.20;;;;;;5015845;28;20092;-84
2023/08/18 05:12:56;;;;;;;6.78;3.38;;;17.90;75.50;;;;;;5015574;28;20057;-79
2023/08/18 05:15:22;;;;;;;6.30;3.60;;;18.00;75.30;;;;;;5000304;28;20131;-87
2023/08/18 05:17:49;;;;;;;5.93;3.20;;;18.00;75.20;;;;;;5001049;28;20075;-84
2023/08/18 05:20:15;;;;;;;9.18;3.45;;;18.10;75.30;;;;;;5017224;28;20462;-81
2023/08/18 05:22:41;;;;;;;13.32;3.33;;;18.00;74.90;;;;;;5016430;28;20032;-84
2023/08/18 05:25:08;;;;;;;4.80;3.05;;;18.00;74.80;;;;;;5018109;28;20386;-84
2023/08/18 05:27:34;;;;;;;6.13;2.72;;;18.20;74.40;;;;;;5029474;28;20032;-81
2023/08/18 05:30:00;;;;;;;7.97;3.45;;;18.40;72.80;;;;;;5037197;28;20025;-81
2023/08/18 05:32:25;;;;;;;7.88;3.40;;;18.60;72.50;;;;;;5038424;28;20021;-88
2023/08/18 05:34:57;;;;;;;7.13;3.45;;;18.70;72.40;;;;;;5018921;28;20146;-83
2023/08/18 05:37:23;;;;;;;6.38;3.30;;;18.70;72.60;;;;;;5017778;28;20032;-85
2023/08/18 05:39:49;;;;;;;6.30;3.15;;;18.70;73.10;;;;;;5017244;28;20116;-88
2023/08/18 05:42:15;;;;;;;5.32;3.10;;;18.70;71.80;;;;;;5017034;28;20105;-83
2023/08/18 05:44:42;;;;;;;4.63;3.38;;;18.80;71.50;;;;;;5015847;28;20026;-83
2023/08/18 05:47:08;;;;;;;7.38;3.30;;;18.70;72.10;;;;;;5003247;28;20600;-82
2023/08/18 05:49:33;;;;;;;5.45;3.10;;;18.60;72.60;;;;;;5017748;28;20034;-89
2023/08/18 05:51:59;;;;;;;6.05;2.70;;;18.60;72.60;;;;;;5035430;28;20026;-84
2023/08/18 05:54:25;;;;;;;6.93;3.13;;;18.70;72.40;;;;;;5018261;28;20375;-84
2023/08/18 05:56:50;;;;;;;7.25;3.40;;;18.80;72.60;;;;;;5003959;28;20014;-82
2023/08/18 05:59:16;;;;;;;4.40;2.83;;;18.90;72.50;;;;;;5037328;28;20029;-80
2023/08/18 06:01:41;;;;;;;3.92;2.63;;;19.10;72.00;;;;;;5028659;28;20028;-82
2023/08/18 06:04:10;;;;;;;5.63;2.85;;;19.20;71.20;;;;;;5019189;28;20029;-81
2023/08/18 06:06:37;;;;;;;3.70;2.80;;;19.40;70.10;;;;;;5015482;28;20021;-80
2023/08/18 06:09:03;;;;;;;4.82;2.55;;;19.60;68.30;;;;;;5014731;28;20083;-82
2023/08/18 06:11:29;;;;;;;6.53;2.83;;;19.70;68.10;;;;;;5015568;28;20030;-77
2023/08/18 06:13:54;;;;;;;6.90;2.80;;;19.80;67.50;;;;;;5014892;28;20513;-79
2023/08/18 06:16:20;;;;;;;6.13;2.80;;;19.70;69.00;;;;;;5014698;28;20026;-75
2023/08/18 06:18:45;;;;;;;5.40;2.78;;;19.80;68.50;;;;;;5014852;28;20022;-77
2023/08/18 06:21:11;;;;;;;6.22;2.95;;;19.90;68.60;;;;;;5015436;28;20021;-83
2023/08/18 06:23:37;;;;;;;5.53;3.17;;;20.00;68.60;;;;;;5013951;28;20117;-76
2023/08/18 06:26:03;;;;;;;7.20;2.60;;;20.10;68.60;;;;;;5033217;28;20064;-74
2023/08/18 06:28:29;;;;;;;7.75;2.80;;;20.20;68.30;;;;;;5014878;28;20053;-83
2023/08/18 06:31:06;;;;;;;5.00;2.53;;;20.40;67.50;;;;;;5014945;28;20025;-82
2023/08/18 06:33:34;;;;;;;8.63;2.88;;;20.60;66.00;;;;;;5015165;28;20048;-80
2023/08/18 06:36:00;;;;;;;5.95;2.70;;;20.70;65.50;;;;;;5014869;28;20041;-81
2023/08/18 06:38:27;;;;;;;6.03;2.80;;;20.90;65.20;;;;;;5014862;28;20536;-81
2023/08/18 06:40:53;;;;;;;4.15;2.45;;;21.00;64.60;;;;;;5014813;28;20033;-81
2023/08/18 06:43:18;;;;;;;5.22;2.80;;;21.20;63.80;;;;;;4998460;28;20025;-81
2023/08/18 06:45:44;;;;;;;5.40;2.40;;;21.30;63.00;;;;;;5015210;28;20032;-82
2023/08/18 06:48:10;;;;;;;3.30;2.00;;;21.50;62.90;;;;;;4998235;28;20026;-81
2023/08/18 06:50:36;;;;;;;5.25;2.47;;;21.70;62.60;;;;;;5015042;28;20030;-82
2023/08/18 06:53:03;;;;;;;4.10;2.25;;;21.80;62.10;;;;;;5014704;28;20387;-81
2023/08/18 06:55:31;;;;;;;4.82;2.10;;;22.00;61.80;;;;;;5014620;28;20025;-81
2023/08/18 06:57:57;;;;;;;3.42;1.95;;;22.20;61.20;;;;;;5014353;28;20417;-80
2023/08/18 07:00:23;;;;;;;4.63;2.50;;;22.40;60.40;;;;;;5015034;28;20026;-80
2023/08/18 07:02:49;;;;;;;5.22;2.30;;;22.60;60.30;;;;;;5002182;28;20022;-81
2023/08/18 07:05:16;;;;;;;3.83;2.28;;;22.70;59.90;;;;;;5018015;28;20038;-80
2023/08/18 07:07:42;;;;;;;4.00;2.10;;;22.80;59.40;;;;;;5002845;28;20036;-80
2023/08/18 07:10:09;;;;;;;2.72;1.92;;;23.00;58.80;;;;;;5016382;28;20037;-79
2023/08/18 07:12:35;;;;;;;3.70;2.20;;;23.10;58.60;;;;;;5037800;28;20173;-81
2023/08/18 07:15:03;;;;;;;4.85;2.15;;;23.30;58.30;;;;;;5044315;28;20037;-82
2023/08/18 07:17:29;;;;;;;2.75;2.20;;;23.40;57.40;;;;;;5054088;28;20032;-81
2023/08/18 07:19:54;;;;;;;4.88;2.40;;;23.50;57.20;;;;;;5053561;28;20032;-82
2023/08/18 07:22:21;;;;;;;3.00;2.17;;;23.60;57.10;;;;;;5054098;28;20021;-81
2023/08/18 07:24:48;;;;;;;3.78;2.60;;;23.70;57.00;;;;;;5054385;28;20107;-82
2023/08/18 07:27:14;;;;;;;6.35;2.60;;;23.70;57.10;;;;;;5054467;28;20029;-82
2023/08/18 07:29:40;;;;;;;3.45;2.22;;;23.70;56.40;;;;;;5054437;28;20029;-81
2023/08/18 07:32:06;;;;;;;3.67;2.70;;;23.80;56.30;;;;;;5055184;28;20094;-79
2023/08/18 07:34:32;;;;;;;4.97;2.85;;;23.90;56.40;;;;;;5053852;28;20033;-81
2023/08/18 07:37:00;;;;;;;4.22;2.50;;;24.00;56.70;;;;;;5053979;28;20066;-81
2023/08/18 07:39:25;;;;;;;8.32;2.97;;;24.10;56.80;;;;;;5037235;28;20117;-81
2023/08/18 07:41:51;;;;;;;3.97;2.50;;;24.10;56.70;;;;;;5053906;28;20071;-81
2023/08/18 07:44:17;;;;;;;4.65;2.63;;;24.20;56.90;;;;;;5053647;28;20036;-82
2023/08/18 07:46:43;;;;;;;6.68;2.88;;;24.20;57.10;;;;;;5053696;28;20057;-83
2023/08/18 07:49:09;;;;;;;4.60;2.50;;;24.30;56.90;;;;;;5030610;28;20114;-81
2023/08/18 07:51:35;;;;;;;5.55;2.55;;;24.40;56.70;;;;;;5027326;28;20017;-82
2023/08/18 07:54:00;;;;;;;4.50;2.60;;;24.40;56.70;;;;;;5031243;28;20238;-83
2023/08/18 07:56:28;;;;;;;4.40;2.40;;;24.50;56.60;;;;;;5036980;28;20538;-81
2023/08/18 07:58:54;;;;;;;4.05;2.40;;;24.50;55.80;;;;;;5036940;28;20037;-82
2023/08/18 08:01:21;;;;;;;4.60;2.50;;;24.50;55.80;;;;;;5036990;28;20024;-83
2023/08/18 08:03:46;;;;;;;6.07;2.53;;;24.60;55.70;;;;;;5031064;28;20390;-83
2023/08/18 08:06:14;;;;;;;5.22;2.30;;;24.70;55.80;;;;;;5024695;28;20093;-82
2023/08/18 08:08:40;;;;;;;8.02;3.13;;;24.60;56.50;;;;;;5027063;28;20025;-82
2023/08/18 08:11:06;;;;;;;3.15;2.28;;;24.60;57.70;;;;;;5020484;28;20607;-81
2023/08/18 08:13:31;;;;;;;3.42;2.40;;;24.80;56.90;;;;;;5027185;28;20067;-80
2023/08/18 08:15:57;;;;;;;5.45;2.47;;;24.80;56.00;;;;;;5026813;28;20025;-82
2023/08/18 08:18:24;;;;;;;5.88;2.45;;;24.80;56.20;;;;;;5021601;28;20026;-82
2023/08/18 08:20:49;;;;;;;4.10;2.60;;;24.80;56.00;;;;;;5021804;28;20142;-80
2023/08/18 08:23:16;;;;;;;3.22;2.60;;;24.80;56.70;;;;;;5026973;28;20040;-80
2023/08/18 08:25:42;;;;;;;5.15;2.70;;;24.80;56.50;;;;;;5027255;28;20029;-80
2023/08/18 08:28:07;;;;;;;3.40;2.42;;;24.90;56.30;;;;;;5009347;28;20120;-82
2023/08/18 08:30:34;;;;;;;4.78;2.90;;;24.90;56.10;;;;;;5016447;28;20133;-82
2023/08/18 08:33:00;;;;;;;5.63;3.05;;;24.90;56.90;;;;;;5019909;28;20547;-80
2023/08/18 08:35:27;;;;;;;5.72;2.65;;;25.00;56.70;;;;;;5022214;28;20063;-81
2023/08/18 08:37:52;;;;;;;4.97;2.80;;;24.90;56.10;;;;;;5017201;28;20029;-83
2023/08/18 08:40:23;;;;;;;5.15;2.63;;;24.80;56.80;;;;;;5015993;28;20026;-84
2023/08/18 08:42:53;;;;;;;5.18;2.35;;;25.00;55.40;;;;;;5034369;28;20030;-84
2023/08/18 08:45:20;;;;;;;8.05;2.55;;;25.10;55.40;;;;;;5016662;28;20608;-83
2023/08/18 08:47:47;;;;;;;6.45;2.53;;;25.20;54.70;;;;;;5016607;28;20026;-84
2023/08/18 08:50:17;;;;;;;4.30;2.70;;;25.20;55.10;;;;;;5015498;28;20513;-82
2023/08/18 08:52:48;;;;;;;5.82;2.55;;;25.30;55.40;;;;;;5016226;28;20021;-83
2023/08/18 08:55:15;;;;;;;4.20;2.78;;;25.50;54.70;;;;;;5015951;28;20095;-81
2023/08/18 08:57:42;;;;;;;5.50;2.80;;;25.60;54.90;;;;;;5015801;28;20025;-80
2023/08/18 09:00:10;;;;;;;5.85;2.80;;;25.60;53.60;;;;;;5016120;28;20029;-81
2023/08/18 09:02:37;;;;;;;4.75;2.53;;;25.60;53.90;;;;;;5016391;28;20064;-80
2023/08/18 09:05:04;;;;;;;5.00;2.38;;;25.80;53.80;;;;;;5015768;28;20057;-81
2023/08/18 09:07:29;;;;;;;7.43;2.60;;;25.90;53.20;;;;;;5015289;28;20030;-81
2023/08/18 09:09:55;;;;;;;3.55;2.50;;;26.00;52.40;;;;;;5015972;28;20095;-80
2023/08/18 09:12:30;;;;;;;6.15;2.60;;;25.90;52.20;;;;;;5032466;28;20045;-81
2023/08/18 09:14:58;;;;;;;5.20;2.60;;;26.00;54.10;;;;;;5034686;28;20049;-83
2023/08/18 09:17:26;;;;;;;3.45;2.15;;;26.20;52.90;;;;;;5029320;28;20482;-80
2023/08/18 09:19:57;;;;;;;6.10;2.67;;;26.30;53.70;;;;;;5015371;28;20363;-79
2023/08/18 09:22:24;;;;;;;5.90;2.58;;;26.50;52.30;;;;;;5036804;28;20033;-81
2023/08/18 09:24:51;;;;;;;6.07;2.20;;;26.70;52.60;;;;;;5026147;28;20026;-81
2023/08/18 09:27:17;;;;;;;2.42;2.22;;;26.80;51.80;;;;;;5017809;28;20497;-81
2023/08/18 09:29:43;;;;;;;5.47;2.60;;;26.90;51.30;;;;;;5016083;28;20022;-81
2023/08/18 09:32:11;;;;;;;4.63;2.40;;;27.20;52.00;;;;;;5015708;28;20304;-80
2023/08/18 09:34:43;;;;;;;3.97;2.58;;;27.30;51.10;;;;;;5015597;28;20156;-80
2023/08/18 09:37:10;;;;;;;5.63;2.35;;;27.40;49.00;;;;;;5031652;28;20083;-80
2023/08/18 09:39:35;;;;;;;5.80;2.30;;;27.50;49.40;;;;;;5025245;28;20029;-80
2023/08/18 09:42:02;;;;;;;4.30;2.15;;;27.70;46.70;;;;;;5036406;28;20115;-81
2023/08/18 09:44:28;;;;;;;10.60;2.45;;;27.80;46.50;;;;;;5036816;28;20032;-81
2023/08/18 09:46:56;;;;;;;6.30;2.40;;;28.00;46.80;;;;;;5036091;28;20017;-82
2023/08/18 09:49:27;;;;;;;9.07;2.50;;;28.10;46.90;;;;;;5033875;28;20128;-82
2023/08/18 09:52:04;;;;;;;5.85;2.70;;;28.30;47.40;;;;;;5016773;28;20470;-81
2023/08/18 09:54:36;;;;;;;9.52;2.28;;;28.20;47.10;;;;;;5002852;28;20060;-81
2023/08/18 09:57:07;;;;;;;6.82;2.40;;;28.30;46.10;;;;;;5005748;28;20033;-81
2023/08/18 09:59:40;;;;;;;8.38;2.72;;;28.30;45.90;;;;;;5031487;28;20033;-82
2023/08/18 10:02:07;;;;;;;5.10;2.20;;;28.40;44.60;;;;;;5015464;28;20022;-81
2023/08/18 10:04:39;;;;;;;3.90;2.13;;;28.60;43.90;;;;;;5031930;28;20026;-81
2023/08/18 10:07:06;;;;;;;7.53;2.45;;;28.80;43.80;;;;;;5031400;28;20021;-80
2023/08/18 10:09:33;;;;;;;6.22;2.20;;;28.90;43.40;;;;;;5031689;28;20037;-82
2023/08/18 10:12:01;;;;;;;5.50;2.17;;;29.00;38.10;;;;;;5031961;28;20072;-85
2023/08/18 10:14:30;;;;;;;5.97;2.22;;;29.10;39.90;;;;;;5033365;28;20398;-85
2023/08/18 10:16:57;;;;;;;9.40;2.47;;;29.30;37.90;;;;;;5016733;28;20068;-85
2023/08/18 10:19:56;;;;;;;7.07;2.42;;;29.50;36.60;;;;;;5016203;28;20112;-87
2023/08/18 10:22:25;;;;;;;7.93;2.30;;;29.60;36.30;;;;;;5046848;28;20049;-90
2023/08/18 10:24:53;;;;;;;6.70;2.55;;;29.80;35.70;;;;;;5011900;28;20053;-92
2023/08/18 10:27:28;;;;;;;9.23;2.72;;;29.90;35.40;;;;;;5042196;28;20480;-78
2023/08/18 10:30:05;;;;;;;8.00;2.53;;;30.00;35.70;;;;;;5024047;28;20063;-78
2023/08/18 10:32:33;;;;;;;5.57;2.17;;;30.10;35.40;;;;;;5043158;28;20009;-81
2023/08/18 10:35:19;;;;;;;6.20;2.40;;;30.30;37.20;;;;;;5024882;28;20493;-80
2023/08/18 10:37:47;;;;;;;4.82;2.00;;;30.60;36.80;;;;;;5027797;28;20079;-78
2023/08/18 10:40:23;;;;;;;8.68;2.28;;;30.80;35.50;;;;;;5045610;28;20017;-81
2023/08/18 10:42:50;;;;;;;8.32;2.85;;;31.00;33.90;;;;;;5027103;28;20080;-81
2023/08/18 10:45:26;;;;;;;8.52;2.60;;;31.20;32.60;;;;;;5023550;28;20044;-80
2023/08/18 10:47:57;;;;;;;8.23;2.30;;;31.00;32.30;;;;;;5028359;28;20018;-82
2023/08/18 10:50:23;;;;;;;5.80;2.03;;;30.90;32.80;;;;;;5012184;28;20030;-80
2023/08/18 10:52:52;;;;;;;8.15;2.28;;;30.90;33.40;;;;;;5023824;28;20436;-80
2023/08/18 10:55:17;;;;;;;5.70;2.70;;;30.90;31.80;;;;;;5023616;28;20478;-82
2023/08/18 10:57:45;;;;;;;10.20;2.35;;;30.90;30.70;;;;;;5029304;28;20055;-79
2023/08/18 11:00:12;;;;;;;8.32;2.25;;;31.00;31.70;;;;;;5028256;28;20112;-80
2023/08/18 11:02:38;;;;;;;6.22;2.25;;;31.00;31.10;;;;;;5028903;28;21434;-79
2023/08/18 11:05:06;;;;;;;5.03;2.13;;;31.30;32.80;;;;;;5026426;28;20033;-80
2023/08/18 11:07:32;;;;;;;9.15;2.60;;;31.50;31.40;;;;;;5023322;28;20021;-80
2023/08/18 11:09:59;;;;;;;11.43;3.00;;;31.70;31.50;;;;;;5028256;28;20033;-78
2023/08/18 11:12:25;;;;;;;7.47;3.03;;;31.80;31.40;;;;;;5026513;28;20055;-80
2023/08/18 11:14:50;;;;;;;7.97;2.55;;;31.80;31.40;;;;;;5027716;28;20120;-80
2023/08/18 11:17:17;;;;;;;8.40;2.40;;;32.00;31.70;;;;;;5032490;28;20080;-79
2023/08/18 11:19:46;;;;;;;4.80;2.10;;;32.10;32.60;;;;;;5033270;28;20112;-82
2023/08/18 11:22:13;;;;;;;7.15;2.17;;;32.30;30.40;;;;;;5017635;28;20025;-80
2023/08/18 11:24:40;;;;;;;6.72;2.55;;;32.40;30.20;;;;;;5017427;28;20037;-81
2023/08/18 11:27:06;;;;;;;7.90;2.53;;;32.60;30.70;;;;;;5017962;28;20029;-82
2023/08/18 11:29:32;;;;;;;13.25;2.53;;;32.80;30.80;;;;;;5017650;28;20030;-83
2023/08/18 11:32:02;;;;;;;9.98;2.42;;;32.90;29.10;;;;;;5017937;28;20025;-81
2023/08/18 11:34:28;;;;;;;6.35;2.40;;;33.00;28.60;;;;;;5017716;28;20033;-83
2023/08/18 11:37:04;;;;;;;5.75;2.55;;;33.20;30.20;;;;;;5017657;28;20108;-80
2023/08/18 11:39:30;;;;;;;6.18;2.38;;;33.30;28.10;;;;;;5017442;28;20386;-82
2023/08/18 11:41:56;;;;;;;9.98;2.50;;;33.00;28.60;;;;;;5017312;28;20033;-81
2023/08/18 11:44:23;;;;;;;8.38;2.40;;;32.90;28.50;;;;;;5017344;28;20573;-81
2023/08/18 11:46:50;;;;;;;8.13;2.30;;;32.80;30.10;;;;;;5017711;28;20033;-85
2023/08/18 11:49:16;;;;;;;6.90;2.90;;;32.90;30.00;;;;;;5017874;28;20029;-84
2023/08/18 11:51:59;;;;;;;6.43;2.22;;;33.00;29.80;;;;;;5018028;28;20378;-83
2023/08/18 11:54:27;;;;;;;8.98;2.33;;;33.30;30.20;;;;;;5018707;28;20117;-84
2023/08/18 11:56:53;;;;;;;6.10;2.15;;;33.50;29.90;;;;;;5019328;28;20017;-85
2023/08/18 11:59:22;;;;;;;9.38;2.90;;;33.80;29.70;;;;;;5018440;28;20056;-84
2023/08/18 12:01:53;;;;;;;12.50;2.90;;;33.90;27.90;;;;;;5017339;28;20018;-81
2023/08/18 12:04:30;;;;;;;6.93;2.15;;;33.90;28.80;;;;;;5016652;28;20048;-80
2023/08/18 12:06:58;;;;;;;7.55;2.45;;;34.00;28.20;;;;;;5017212;28;20052;-81
2023/08/18 12:09:26;;;;;;;7.25;2.55;;;34.20;28.00;;;;;;5019125;28;20600;-85
2023/08/18 12:11:52;;;;;;;5.57;2.38;;;34.30;27.60;;;;;;5017620;28;20098;-79
2023/08/18 12:14:18;;;;;;;9.52;2.20;;;34.40;27.20;;;;;;5016908;28;20049;-79
2023/08/18 12:16:46;;;;;;;8.82;2.72;;;34.50;26.30;;;;;;5034262;28;20037;-78
2023/08/18 12:19:12;;;;;;;6.05;2.38;;;34.30;28.10;;;;;;5016359;28;20033;-79
2023/08/18 12:21:38;;;;;;;12.68;2.60;;;34.40;29.20;;;;;;5017014;28;20025;-78
2023/08/18 12:24:07;;;;;;;5.88;2.38;;;34.70;29.40;;;;;;5016646;28;20049;-78
2023/08/18 12:26:34;;;;;;;8.52;4.60;;;35.00;29.30;;;;;;5016599;28;20022;-79
2023/08/18 12:29:04;;;;;;;7.72;4.15;;;35.20;27.50;;;;;;5016257;28;20095;-79
2023/08/18 12:31:32;;;;;;;6.85;2.55;;;35.20;27.10;;;;;;5033833;28;20112;-79
2023/08/18 12:34:01;;;;;;;11.07;2.33;;;35.20;28.20;;;;;;5016920;28;20112;-78
2023/08/18 12:36:27;;;;;;;11.23;2.58;;;35.30;27.40;;;;;;5018759;28;20535;-79
2023/08/18 12:38:52;;;;;;;9.05;2.83;;;35.50;27.10;;;;;;5019082;28;20029;-76
2023/08/18 12:41:18;;;;;;;5.35;2.33;;;35.30;27.30;;;;;;5020369;28;20021;-81
2023/08/18 12:43:44;;;;;;;7.20;2.50;;;35.30;27.30;;;;;;5015542;28;20375;-76